sensor_id;sensor_type;location;lat;lon;timestamp;P1;durP1;ratioP1;P2;durP2;ratioP2
51738;SDS011;37815;52.692;6.226;2023-07-09T00:04:50;6.97;;;4.88;;
51738;SDS011;37815;52.692;6.226;2023-07-09T00:09:50;9.13;;;5.65;;
51738;SDS011;37815;52.692;6.226;2023-07-09T00:14:51;7.80;;;5.40;;
51738;SDS011;37815;52.692;6.226;2023-07-09T00:19:52;9.45;;;5.40;;
51738;SDS011;37815;52.692;6.226;2023-07-09T00:24:52;8.13;;;5.38;;
51738;SDS011;37815;52.692;6.226;2023-07-09T00:29:57;7.40;;;5.00;;
51738;SDS011;37815;52.692;6.226;2023-07-09T00:34:57;8.07;;;5.22;;
51738;SDS011;37815;52.692;6.226;2023-07-09T00:40:00;7.82;;;5.20;;
51738;SDS011;37815;52.692;6.226;2023-07-09T00:45:01;7.82;;;5.43;;
51738;SDS011;37815;52.692;6.226;2023-07-09T00:50:03;7.95;;;5.38;;
51738;SDS011;37815;52.692;6.226;2023-07-09T01:00:12;9.20;;;4.97;;
51738;SDS011;37815;52.692;6.226;2023-07-09T01:05:15;7.55;;;5.18;;
51738;SDS011;37815;52.692;6.226;2023-07-09T01:10:23;10.40;;;5.90;;
51738;SDS011;37815;52.692;6.226;2023-07-09T01:15:24;8.05;;;5.55;;
51738;SDS011;37815;52.692;6.226;2023-07-09T01:20:26;8.70;;;6.35;;
51738;SDS011;37815;52.692;6.226;2023-07-09T01:25:27;7.70;;;5.40;;
51738;SDS011;37815;52.692;6.226;2023-07-09T01:30:32;7.55;;;5.68;;
51738;SDS011;37815;52.692;6.226;2023-07-09T01:35:36;8.40;;;5.70;;
51738;SDS011;37815;52.692;6.226;2023-07-09T01:40:42;8.75;;;6.00;;
51738;SDS011;37815;52.692;6.226;2023-07-09T01:45:46;9.05;;;6.20;;
51738;SDS011;37815;52.692;6.226;2023-07-09T01:50:50;9.45;;;5.55;;
51738;SDS011;37815;52.692;6.226;2023-07-09T01:55:52;8.45;;;5.93;;
51738;SDS011;37815;52.692;6.226;2023-07-09T02:00:54;7.88;;;5.75;;
51738;SDS011;37815;52.692;6.226;2023-07-09T02:05:55;9.77;;;6.10;;
51738;SDS011;37815;52.692;6.226;2023-07-09T02:10:57;8.68;;;5.90;;
51738;SDS011;37815;52.692;6.226;2023-07-09T02:15:58;8.98;;;6.20;;
51738;SDS011;37815;52.692;6.226;2023-07-09T02:20:59;10.75;;;6.88;;
51738;SDS011;37815;52.692;6.226;2023-07-09T02:25:59;7.55;;;5.88;;
51738;SDS011;37815;52.692;6.226;2023-07-09T02:31:00;7.55;;;5.93;;
51738;SDS011;37815;52.692;6.226;2023-07-09T02:36:00;8.18;;;5.97;;
51738;SDS011;37815;52.692;6.226;2023-07-09T02:41:01;9.75;;;6.28;;
51738;SDS011;37815;52.692;6.226;2023-07-09T02:46:01;9.02;;;6.55;;
51738;SDS011;37815;52.692;6.226;2023-07-09T02:51:03;8.65;;;6.35;;
51738;SDS011;37815;52.692;6.226;2023-07-09T02:56:03;11.25;;;7.05;;
51738;SDS011;37815;52.692;6.226;2023-07-09T03:01:04;11.07;;;6.90;;
51738;SDS011;37815;52.692;6.226;2023-07-09T03:06:05;10.68;;;6.43;;
51738;SDS011;37815;52.692;6.226;2023-07-09T03:11:10;9.70;;;6.82;;
51738;SDS011;37815;52.692;6.226;2023-07-09T03:16:12;9.52;;;6.60;;
51738;SDS011;37815;52.692;6.226;2023-07-09T03:21:13;9.30;;;7.28;;
51738;SDS011;37815;52.692;6.226;2023-07-09T03:26:14;10.95;;;7.20;;
51738;SDS011;37815;52.692;6.226;2023-07-09T03:31:15;9.95;;;6.88;;
51738;SDS011;37815;52.692;6.226;2023-07-09T03:36:15;8.85;;;6.25;;
51738;SDS011;37815;52.692;6.226;2023-07-09T03:41:17;11.30;;;6.85;;
51738;SDS011;37815;52.692;6.226;2023-07-09T03:46:17;10.65;;;7.43;;
51738;SDS011;37815;52.692;6.226;2023-07-09T03:51:18;10.98;;;7.30;;
51738;SDS011;37815;52.692;6.226;2023-07-09T03:56:18;11.25;;;7.22;;
51738;SDS011;37815;52.692;6.226;2023-07-09T04:01:19;9.02;;;6.72;;
51738;SDS011;37815;52.692;6.226;2023-07-09T04:06:20;9.32;;;6.95;;
51738;SDS011;37815;52.692;6.226;2023-07-09T04:11:20;9.88;;;6.85;;
51738;SDS011;37815;52.692;6.226;2023-07-09T04:16:21;10.60;;;7.18;;
51738;SDS011;37815;52.692;6.226;2023-07-09T04:21:21;9.48;;;7.00;;
51738;SDS011;37815;52.692;6.226;2023-07-09T04:26:22;10.93;;;6.95;;
51738;SDS011;37815;52.692;6.226;2023-07-09T04:31:23;10.35;;;7.00;;
51738;SDS011;37815;52.692;6.226;2023-07-09T04:36:24;10.25;;;6.80;;
51738;SDS011;37815;52.692;6.226;2023-07-09T04:41:26;9.05;;;6.80;;
51738;SDS011;37815;52.692;6.226;2023-07-09T04:46:26;9.65;;;6.55;;
51738;SDS011;37815;52.692;6.226;2023-07-09T04:51:27;9.25;;;6.60;;
51738;SDS011;37815;52.692;6.226;2023-07-09T04:56:28;7.90;;;6.63;;
51738;SDS011;37815;52.692;6.226;2023-07-09T05:01:29;9.25;;;6.95;;
51738;SDS011;37815;52.692;6.226;2023-07-09T05:06:30;7.38;;;6.10;;
51738;SDS011;37815;52.692;6.226;2023-07-09T05:11:32;9.20;;;6.65;;
51738;SDS011;37815;52.692;6.226;2023-07-09T05:16:34;8.88;;;6.45;;
51738;SDS011;37815;52.692;6.226;2023-07-09T05:21:34;10.32;;;6.50;;
51738;SDS011;37815;52.692;6.226;2023-07-09T05:26:35;9.48;;;6.35;;
51738;SDS011;37815;52.692;6.226;2023-07-09T05:31:36;9.15;;;6.75;;
51738;SDS011;37815;52.692;6.226;2023-07-09T05:36:37;8.52;;;6.60;;
51738;SDS011;37815;52.692;6.226;2023-07-09T05:41:37;7.78;;;5.97;;
51738;SDS011;37815;52.692;6.226;2023-07-09T05:46:38;10.63;;;7.10;;
51738;SDS011;37815;52.692;6.226;2023-07-09T05:51:39;11.18;;;6.90;;
51738;SDS011;37815;52.692;6.226;2023-07-09T05:56:39;8.75;;;6.55;;
51738;SDS011;37815;52.692;6.226;2023-07-09T06:01:40;8.05;;;6.28;;
51738;SDS011;37815;52.692;6.226;2023-07-09T06:06:41;9.45;;;6.75;;
51738;SDS011;37815;52.692;6.226;2023-07-09T06:11:41;8.23;;;6.03;;
51738;SDS011;37815;52.692;6.226;2023-07-09T06:16:43;7.70;;;5.82;;
51738;SDS011;37815;52.692;6.226;2023-07-09T06:21:43;8.02;;;6.53;;
51738;SDS011;37815;52.692;6.226;2023-07-09T06:26:44;9.23;;;7.00;;
51738;SDS011;37815;52.692;6.226;2023-07-09T06:31:45;8.98;;;5.85;;
51738;SDS011;37815;52.692;6.226;2023-07-09T06:36:46;8.38;;;6.25;;
51738;SDS011;37815;52.692;6.226;2023-07-09T06:41:46;9.07;;;6.35;;
51738;SDS011;37815;52.692;6.226;2023-07-09T06:46:47;10.43;;;6.97;;
51738;SDS011;37815;52.692;6.226;2023-07-09T06:51:48;11.38;;;6.85;;
51738;SDS011;37815;52.692;6.226;2023-07-09T06:56:48;11.00;;;7.50;;
51738;SDS011;37815;52.692;6.226;2023-07-09T07:01:49;10.38;;;7.45;;
51738;SDS011;37815;52.692;6.226;2023-07-09T07:06:50;9.05;;;6.65;;
51738;SDS011;37815;52.692;6.226;2023-07-09T07:11:50;9.40;;;6.80;;
51738;SDS011;37815;52.692;6.226;2023-07-09T07:16:51;10.30;;;7.05;;
51738;SDS011;37815;52.692;6.226;2023-07-09T07:21:51;10.48;;;7.07;;
51738;SDS011;37815;52.692;6.226;2023-07-09T07:26:52;11.35;;;8.05;;
51738;SDS011;37815;52.692;6.226;2023-07-09T07:31:53;11.50;;;7.22;;
51738;SDS011;37815;52.692;6.226;2023-07-09T07:36:54;12.52;;;7.28;;
51738;SDS011;37815;52.692;6.226;2023-07-09T07:41:55;10.50;;;7.80;;
51738;SDS011;37815;52.692;6.226;2023-07-09T07:46:56;11.50;;;7.68;;
51738;SDS011;37815;52.692;6.226;2023-07-09T07:51:56;11.27;;;7.60;;
51738;SDS011;37815;52.692;6.226;2023-07-09T07:56:57;10.40;;;7.15;;
51738;SDS011;37815;52.692;6.226;2023-07-09T08:01:58;10.40;;;7.53;;
51738;SDS011;37815;52.692;6.226;2023-07-09T08:06:59;11.27;;;7.63;;
51738;SDS011;37815;52.692;6.226;2023-07-09T08:11:59;10.18;;;7.30;;
51738;SDS011;37815;52.692;6.226;2023-07-09T08:17:01;11.00;;;7.10;;
51738;SDS011;37815;52.692;6.226;2023-07-09T08:22:02;9.50;;;6.97;;
51738;SDS011;37815;52.692;6.226;2023-07-09T08:27:02;10.50;;;7.13;;
51738;SDS011;37815;52.692;6.226;2023-07-09T08:32:06;10.60;;;6.85;;
51738;SDS011;37815;52.692;6.226;2023-07-09T08:37:07;11.32;;;6.75;;
51738;SDS011;37815;52.692;6.226;2023-07-09T08:42:13;11.23;;;6.93;;
51738;SDS011;37815;52.692;6.226;2023-07-09T08:47:29;8.77;;;6.97;;
51738;SDS011;37815;52.692;6.226;2023-07-09T08:52:48;8.63;;;6.63;;
51738;SDS011;37815;52.692;6.226;2023-07-09T08:57:57;8.98;;;6.85;;
51738;SDS011;37815;52.692;6.226;2023-07-09T09:03:04;11.77;;;6.97;;
51738;SDS011;37815;52.692;6.226;2023-07-09T09:13:29;9.93;;;6.80;;
51738;SDS011;37815;52.692;6.226;2023-07-09T09:18:33;8.07;;;6.40;;
51738;SDS011;37815;52.692;6.226;2023-07-09T09:23:48;12.23;;;7.53;;
51738;SDS011;37815;52.692;6.226;2023-07-09T09:28:55;12.10;;;6.72;;
51738;SDS011;37815;52.692;6.226;2023-07-09T09:33:55;10.65;;;6.68;;
51738;SDS011;37815;52.692;6.226;2023-07-09T09:39:01;10.90;;;7.10;;
51738;SDS011;37815;52.692;6.226;2023-07-09T09:44:02;10.70;;;6.97;;
51738;SDS011;37815;52.692;6.226;2023-07-09T09:49:08;9.25;;;6.80;;
51738;SDS011;37815;52.692;6.226;2023-07-09T09:54:17;12.15;;;7.10;;
51738;SDS011;37815;52.692;6.226;2023-07-09T09:59:25;12.35;;;7.00;;
51738;SDS011;37815;52.692;6.226;2023-07-09T10:04:32;10.30;;;7.05;;
51738;SDS011;37815;52.692;6.226;2023-07-09T10:14:58;10.23;;;7.10;;
51738;SDS011;37815;52.692;6.226;2023-07-09T10:20:24;11.02;;;7.32;;
51738;SDS011;37815;52.692;6.226;2023-07-09T10:25:47;9.50;;;7.15;;
51738;SDS011;37815;52.692;6.226;2023-07-09T10:31:11;9.35;;;6.93;;
51738;SDS011;37815;52.692;6.226;2023-07-09T10:41:31;11.60;;;7.97;;
51738;SDS011;37815;52.692;6.226;2023-07-09T10:46:37;10.70;;;6.80;;
51738;SDS011;37815;52.692;6.226;2023-07-09T10:56:44;9.43;;;6.63;;
51738;SDS011;37815;52.692;6.226;2023-07-09T11:01:50;11.75;;;6.65;;
51738;SDS011;37815;52.692;6.226;2023-07-09T11:06:56;9.07;;;7.18;;
51738;SDS011;37815;52.692;6.226;2023-07-09T11:12:27;11.98;;;6.68;;
51738;SDS011;37815;52.692;6.226;2023-07-09T11:17:34;9.25;;;6.63;;
51738;SDS011;37815;52.692;6.226;2023-07-09T11:22:39;10.15;;;6.70;;
51738;SDS011;37815;52.692;6.226;2023-07-09T11:27:45;9.63;;;6.95;;
51738;SDS011;37815;52.692;6.226;2023-07-09T11:32:54;10.00;;;6.43;;
51738;SDS011;37815;52.692;6.226;2023-07-09T11:38:06;10.98;;;6.70;;
51738;SDS011;37815;52.692;6.226;2023-07-09T11:43:24;10.15;;;6.75;;
51738;SDS011;37815;52.692;6.226;2023-07-09T11:48:33;12.88;;;6.43;;
51738;SDS011;37815;52.692;6.226;2023-07-09T11:58:50;7.78;;;6.07;;
51738;SDS011;37815;52.692;6.226;2023-07-09T12:03:57;10.63;;;6.45;;
51738;SDS011;37815;52.692;6.226;2023-07-09T12:08:59;9.30;;;6.25;;
51738;SDS011;37815;52.692;6.226;2023-07-09T12:14:03;8.95;;;6.53;;
51738;SDS011;37815;52.692;6.226;2023-07-09T12:19:05;7.28;;;5.82;;
51738;SDS011;37815;52.692;6.226;2023-07-09T12:29:27;7.25;;;5.82;;
51738;SDS011;37815;52.692;6.226;2023-07-09T12:34:30;7.55;;;5.60;;
51738;SDS011;37815;52.692;6.226;2023-07-09T12:39:32;8.65;;;5.70;;
51738;SDS011;37815;52.692;6.226;2023-07-09T12:44:35;9.77;;;6.10;;
51738;SDS011;37815;52.692;6.226;2023-07-09T12:49:37;7.72;;;5.43;;
51738;SDS011;37815;52.692;6.226;2023-07-09T12:54:40;8.15;;;5.55;;
51738;SDS011;37815;52.692;6.226;2023-07-09T12:59:41;7.80;;;5.22;;
51738;SDS011;37815;52.692;6.226;2023-07-09T13:04:42;8.18;;;5.50;;
51738;SDS011;37815;52.692;6.226;2023-07-09T13:09:47;7.93;;;5.43;;
51738;SDS011;37815;52.692;6.226;2023-07-09T13:14:52;8.30;;;5.63;;
51738;SDS011;37815;52.692;6.226;2023-07-09T13:19:54;10.60;;;5.35;;
51738;SDS011;37815;52.692;6.226;2023-07-09T13:24:56;8.35;;;5.60;;
51738;SDS011;37815;52.692;6.226;2023-07-09T13:29:57;9.18;;;5.38;;
51738;SDS011;37815;52.692;6.226;2023-07-09T13:34:58;7.40;;;5.05;;
51738;SDS011;37815;52.692;6.226;2023-07-09T13:39:58;6.45;;;5.05;;
51738;SDS011;37815;52.692;6.226;2023-07-09T13:45:00;6.50;;;5.35;;
51738;SDS011;37815;52.692;6.226;2023-07-09T13:50:00;8.23;;;5.15;;
51738;SDS011;37815;52.692;6.226;2023-07-09T13:55:01;9.02;;;5.47;;
51738;SDS011;37815;52.692;6.226;2023-07-09T14:00:02;6.28;;;5.30;;
51738;SDS011;37815;52.692;6.226;2023-07-09T14:05:05;7.63;;;5.50;;
51738;SDS011;37815;52.692;6.226;2023-07-09T14:10:10;7.47;;;5.43;;
51738;SDS011;37815;52.692;6.226;2023-07-09T14:15:19;8.63;;;5.22;;
51738;SDS011;37815;52.692;6.226;2023-07-09T14:20:21;8.82;;;5.82;;
51738;SDS011;37815;52.692;6.226;2023-07-09T14:25:23;6.38;;;4.55;;
51738;SDS011;37815;52.692;6.226;2023-07-09T14:30:25;7.28;;;4.93;;
51738;SDS011;37815;52.692;6.226;2023-07-09T14:35:26;7.35;;;5.38;;
51738;SDS011;37815;52.692;6.226;2023-07-09T14:40:26;6.10;;;4.72;;
51738;SDS011;37815;52.692;6.226;2023-07-09T14:45:27;7.63;;;5.05;;
51738;SDS011;37815;52.692;6.226;2023-07-09T14:50:28;6.20;;;4.50;;
51738;SDS011;37815;52.692;6.226;2023-07-09T14:55:29;8.30;;;4.72;;
51738;SDS011;37815;52.692;6.226;2023-07-09T15:00:30;7.55;;;4.97;;
51738;SDS011;37815;52.692;6.226;2023-07-09T15:05:30;7.47;;;4.82;;
51738;SDS011;37815;52.692;6.226;2023-07-09T15:10:31;6.75;;;4.75;;
51738;SDS011;37815;52.692;6.226;2023-07-09T15:15:31;10.93;;;4.25;;
51738;SDS011;37815;52.692;6.226;2023-07-09T15:20:32;8.07;;;4.40;;
51738;SDS011;37815;52.692;6.226;2023-07-09T15:25:33;6.10;;;4.25;;
51738;SDS011;37815;52.692;6.226;2023-07-09T15:30:33;5.68;;;4.38;;
51738;SDS011;37815;52.692;6.226;2023-07-09T15:35:36;6.10;;;4.10;;
51738;SDS011;37815;52.692;6.226;2023-07-09T15:40:37;5.85;;;4.20;;
51738;SDS011;37815;52.692;6.226;2023-07-09T15:45:41;5.72;;;4.10;;
51738;SDS011;37815;52.692;6.226;2023-07-09T15:50:44;6.63;;;4.60;;
51738;SDS011;37815;52.692;6.226;2023-07-09T15:55:44;4.85;;;4.03;;
51738;SDS011;37815;52.692;6.226;2023-07-09T16:00:45;5.72;;;4.18;;
51738;SDS011;37815;52.692;6.226;2023-07-09T16:05:53;5.30;;;3.97;;
51738;SDS011;37815;52.692;6.226;2023-07-09T16:10:53;6.55;;;4.00;;
51738;SDS011;37815;52.692;6.226;2023-07-09T16:15:54;5.13;;;3.95;;
51738;SDS011;37815;52.692;6.226;2023-07-09T16:20:55;6.75;;;3.90;;
51738;SDS011;37815;52.692;6.226;2023-07-09T16:25:56;6.55;;;3.80;;
51738;SDS011;37815;52.692;6.226;2023-07-09T16:30:57;6.72;;;3.75;;
51738;SDS011;37815;52.692;6.226;2023-07-09T16:35:58;6.20;;;3.72;;
51738;SDS011;37815;52.692;6.226;2023-07-09T16:40:58;5.25;;;3.60;;
51738;SDS011;37815;52.692;6.226;2023-07-09T16:45:59;5.45;;;3.83;;
51738;SDS011;37815;52.692;6.226;2023-07-09T16:51:00;5.15;;;3.50;;
51738;SDS011;37815;52.692;6.226;2023-07-09T16:56:00;6.15;;;3.65;;
51738;SDS011;37815;52.692;6.226;2023-07-09T17:01:02;4.72;;;3.17;;
51738;SDS011;37815;52.692;6.226;2023-07-09T17:06:03;4.80;;;3.20;;
51738;SDS011;37815;52.692;6.226;2023-07-09T17:11:04;5.03;;;3.10;;
51738;SDS011;37815;52.692;6.226;2023-07-09T17:16:04;5.35;;;3.40;;
51738;SDS011;37815;52.692;6.226;2023-07-09T17:21:05;5.82;;;3.33;;
51738;SDS011;37815;52.692;6.226;2023-07-09T17:26:06;4.18;;;3.22;;
51738;SDS011;37815;52.692;6.226;2023-07-09T17:31:07;4.45;;;3.03;;
51738;SDS011;37815;52.692;6.226;2023-07-09T17:36:09;4.47;;;3.20;;
51738;SDS011;37815;52.692;6.226;2023-07-09T17:41:13;4.85;;;2.95;;
51738;SDS011;37815;52.692;6.226;2023-07-09T17:46:14;4.50;;;3.13;;
51738;SDS011;37815;52.692;6.226;2023-07-09T17:51:15;5.45;;;3.10;;
51738;SDS011;37815;52.692;6.226;2023-07-09T17:56:18;3.65;;;2.75;;
51738;SDS011;37815;52.692;6.226;2023-07-09T18:01:21;4.90;;;2.78;;
51738;SDS011;37815;52.692;6.226;2023-07-09T18:06:22;3.65;;;2.80;;
51738;SDS011;37815;52.692;6.226;2023-07-09T18:11:25;4.45;;;3.28;;
51738;SDS011;37815;52.692;6.226;2023-07-09T18:16:28;5.80;;;3.28;;
51738;SDS011;37815;52.692;6.226;2023-07-09T18:21:28;4.18;;;2.95;;
51738;SDS011;37815;52.692;6.226;2023-07-09T18:26:30;5.05;;;3.00;;
51738;SDS011;37815;52.692;6.226;2023-07-09T18:31:31;4.57;;;2.90;;
51738;SDS011;37815;52.692;6.226;2023-07-09T18:36:31;4.10;;;2.92;;
51738;SDS011;37815;52.692;6.226;2023-07-09T18:41:32;3.75;;;2.72;;
51738;SDS011;37815;52.692;6.226;2023-07-09T18:46:32;4.10;;;2.80;;
51738;SDS011;37815;52.692;6.226;2023-07-09T18:51:33;4.13;;;2.60;;
51738;SDS011;37815;52.692;6.226;2023-07-09T18:56:35;5.13;;;2.97;;
51738;SDS011;37815;52.692;6.226;2023-07-09T19:01:36;3.90;;;2.53;;
51738;SDS011;37815;52.692;6.226;2023-07-09T19:06:37;5.63;;;2.88;;
51738;SDS011;37815;52.692;6.226;2023-07-09T19:11:37;4.03;;;2.88;;
51738;SDS011;37815;52.692;6.226;2023-07-09T19:16:38;4.75;;;2.38;;
51738;SDS011;37815;52.692;6.226;2023-07-09T19:21:38;5.40;;;2.58;;
51738;SDS011;37815;52.692;6.226;2023-07-09T19:26:39;2.88;;;2.35;;
51738;SDS011;37815;52.692;6.226;2023-07-09T19:31:40;3.42;;;2.65;;
51738;SDS011;37815;52.692;6.226;2023-07-09T19:36:42;5.30;;;2.60;;
51738;SDS011;37815;52.692;6.226;2023-07-09T19:41:43;3.58;;;2.80;;
51738;SDS011;37815;52.692;6.226;2023-07-09T19:46:44;4.45;;;2.50;;
51738;SDS011;37815;52.692;6.226;2023-07-09T19:51:45;4.63;;;2.83;;
51738;SDS011;37815;52.692;6.226;2023-07-09T19:56:46;3.08;;;2.40;;
51738;SDS011;37815;52.692;6.226;2023-07-09T20:01:48;3.78;;;2.63;;
51738;SDS011;37815;52.692;6.226;2023-07-09T20:06:50;5.07;;;2.67;;
51738;SDS011;37815;52.692;6.226;2023-07-09T20:11:51;3.75;;;2.45;;
51738;SDS011;37815;52.692;6.226;2023-07-09T20:16:51;4.20;;;2.70;;
51738;SDS011;37815;52.692;6.226;2023-07-09T20:21:52;4.63;;;2.30;;
51738;SDS011;37815;52.692;6.226;2023-07-09T20:26:52;5.35;;;2.85;;
51738;SDS011;37815;52.692;6.226;2023-07-09T20:31:54;4.00;;;2.53;;
51738;SDS011;37815;52.692;6.226;2023-07-09T20:36:57;4.20;;;2.80;;
51738;SDS011;37815;52.692;6.226;2023-07-09T20:41:57;4.22;;;2.78;;
51738;SDS011;37815;52.692;6.226;2023-07-09T20:46:59;3.42;;;2.65;;
51738;SDS011;37815;52.692;6.226;2023-07-09T20:52:00;3.80;;;2.40;;
51738;SDS011;37815;52.692;6.226;2023-07-09T20:57:00;3.80;;;2.33;;
51738;SDS011;37815;52.692;6.226;2023-07-09T21:02:05;3.60;;;2.50;;
51738;SDS011;37815;52.692;6.226;2023-07-09T21:07:24;4.35;;;2.72;;
51738;SDS011;37815;52.692;6.226;2023-07-09T21:12:25;4.78;;;2.70;;
51738;SDS011;37815;52.692;6.226;2023-07-09T21:17:25;3.78;;;2.25;;
51738;SDS011;37815;52.692;6.226;2023-07-09T21:22:27;5.40;;;2.78;;
51738;SDS011;37815;52.692;6.226;2023-07-09T21:27:28;3.42;;;2.63;;
51738;SDS011;37815;52.692;6.226;2023-07-09T21:32:29;3.72;;;2.90;;
51738;SDS011;37815;52.692;6.226;2023-07-09T21:37:30;5.35;;;2.92;;
51738;SDS011;37815;52.692;6.226;2023-07-09T21:42:31;4.78;;;2.88;;
51738;SDS011;37815;52.692;6.226;2023-07-09T21:47:32;3.67;;;2.70;;
51738;SDS011;37815;52.692;6.226;2023-07-09T21:52:33;4.25;;;2.55;;
51738;SDS011;37815;52.692;6.226;2023-07-09T21:57:36;4.93;;;2.72;;
51738;SDS011;37815;52.692;6.226;2023-07-09T22:02:36;4.07;;;2.60;;
51738;SDS011;37815;52.692;6.226;2023-07-09T22:07:37;4.57;;;2.72;;
51738;SDS011;37815;52.692;6.226;2023-07-09T22:12:38;3.85;;;2.60;;
51738;SDS011;37815;52.692;6.226;2023-07-09T22:17:41;2.83;;;2.40;;
51738;SDS011;37815;52.692;6.226;2023-07-09T22:22:43;4.13;;;2.75;;
51738;SDS011;37815;52.692;6.226;2023-07-09T22:27:44;5.68;;;2.92;;
51738;SDS011;37815;52.692;6.226;2023-07-09T22:32:55;5.78;;;2.88;;
51738;SDS011;37815;52.692;6.226;2023-07-09T22:37:56;3.85;;;2.67;;
51738;SDS011;37815;52.692;6.226;2023-07-09T22:42:57;3.83;;;2.95;;
51738;SDS011;37815;52.692;6.226;2023-07-09T22:48:00;3.83;;;2.92;;
51738;SDS011;37815;52.692;6.226;2023-07-09T22:53:01;4.30;;;2.80;;
51738;SDS011;37815;52.692;6.226;2023-07-09T22:58:06;5.85;;;3.50;;
51738;SDS011;37815;52.692;6.226;2023-07-09T23:03:11;4.43;;;3.30;;
51738;SDS011;37815;52.692;6.226;2023-07-09T23:13:24;5.25;;;3.50;;
51738;SDS011;37815;52.692;6.226;2023-07-09T23:18:30;4.03;;;2.95;;
51738;SDS011;37815;52.692;6.226;2023-07-09T23:23:31;6.25;;;3.60;;
51738;SDS011;37815;52.692;6.226;2023-07-09T23:28:31;5.13;;;3.60;;
51738;SDS011;37815;52.692;6.226;2023-07-09T23:33:33;5.07;;;3.78;;
51738;SDS011;37815;52.692;6.226;2023-07-09T23:38:38;5.63;;;3.30;;
51738;SDS011;37815;52.692;6.226;2023-07-09T23:43:39;5.70;;;3.30;;
51738;SDS011;37815;52.692;6.226;2023-07-09T23:48:43;5.65;;;3.83;;
51738;SDS011;37815;52.692;6.226;2023-07-09T23:53:45;5.50;;;3.85;;
51738;SDS011;37815;52.692;6.226;2023-07-09T23:58:45;5.88;;;3.80;;
